Vernon Hills, Illinois
Current Conditions -  °F | °C
As of 2:52 PM on Thursday 23 Oct 2014 (Local Time) from KPWK Reporting Station
Clear Clear  
Wind Chill: 61°   Ceiling: Unl
Heat Index: 61°   Visibility: 10mi
Dew Point: 41°   Wind: 10mph
Humidity: 48%   Direction: 210°SSW
Pressure: 30.12"   Gusts: NA
Location:  42.22°N, 87.97°W
Report Text: KPWK 231952Z 21009KT 10SM CLR 16/05 A3012 RMK AO2 SLP201 T01610050
Loading
Personal Weather Stations






























Interactive Weather Map
Tropical Storm Tracking
New forecast layout! Learn more

10-Day Weather Forecast

Advertisements
Track Severe Weather on mobile